sensor_id;sensor_type;location;lat;lon;timestamp;P1;durP1;ratioP1;P2;durP2;ratioP2
76202;SDS011;64985;46.364;17.008;2024-03-29T00:00:07;0.40;;;0.40;;
76202;SDS011;64985;46.364;17.008;2024-03-29T00:03:10;1.95;;;0.43;;
76202;SDS011;64985;46.364;17.008;2024-03-29T00:06:11;1.35;;;0.60;;
76202;SDS011;64985;46.364;17.008;2024-03-29T00:09:13;2.72;;;0.52;;
76202;SDS011;64985;46.364;17.008;2024-03-29T00:12:14;0.40;;;0.30;;
76202;SDS011;64985;46.364;17.008;2024-03-29T00:15:15;0.50;;;0.40;;
76202;SDS011;64985;46.364;17.008;2024-03-29T00:18:17;0.77;;;0.40;;
76202;SDS011;64985;46.364;17.008;2024-03-29T00:21:18;0.80;;;0.40;;
76202;SDS011;64985;46.364;17.008;2024-03-29T00:24:19;0.70;;;0.40;;
76202;SDS011;64985;46.364;17.008;2024-03-29T00:27:20;0.95;;;0.38;;
76202;SDS011;64985;46.364;17.008;2024-03-29T00:30:26;3.58;;;0.60;;
76202;SDS011;64985;46.364;17.008;2024-03-29T00:33:27;1.25;;;0.50;;
76202;SDS011;64985;46.364;17.008;2024-03-29T00:36:28;1.15;;;0.50;;
76202;SDS011;64985;46.364;17.008;2024-03-29T00:39:30;0.55;;;0.32;;
76202;SDS011;64985;46.364;17.008;2024-03-29T00:42:31;0.80;;;0.52;;
76202;SDS011;64985;46.364;17.008;2024-03-29T00:45:32;1.38;;;0.55;;
76202;SDS011;64985;46.364;17.008;2024-03-29T00:48:33;0.60;;;0.40;;
76202;SDS011;64985;46.364;17.008;2024-03-29T00:51:34;0.50;;;0.40;;
76202;SDS011;64985;46.364;17.008;2024-03-29T00:54:36;0.60;;;0.45;;
76202;SDS011;64985;46.364;17.008;2024-03-29T00:57:38;2.90;;;0.50;;
76202;SDS011;64985;46.364;17.008;2024-03-29T01:00:39;1.23;;;0.40;;
76202;SDS011;64985;46.364;17.008;2024-03-29T01:03:40;1.65;;;0.50;;
76202;SDS011;64985;46.364;17.008;2024-03-29T01:06:42;1.10;;;0.50;;
76202;SDS011;64985;46.364;17.008;2024-03-29T01:09:46;0.50;;;0.50;;
76202;SDS011;64985;46.364;17.008;2024-03-29T01:12:47;0.70;;;0.50;;
76202;SDS011;64985;46.364;17.008;2024-03-29T01:15:48;0.98;;;0.60;;
76202;SDS011;64985;46.364;17.008;2024-03-29T01:18:50;1.48;;;0.50;;
76202;SDS011;64985;46.364;17.008;2024-03-29T01:21:53;1.10;;;0.50;;
76202;SDS011;64985;46.364;17.008;2024-03-29T01:24:54;1.48;;;0.57;;
76202;SDS011;64985;46.364;17.008;2024-03-29T01:27:56;1.13;;;0.60;;
76202;SDS011;64985;46.364;17.008;2024-03-29T01:30:57;1.95;;;0.82;;
76202;SDS011;64985;46.364;17.008;2024-03-29T01:34:01;2.33;;;0.77;;
76202;SDS011;64985;46.364;17.008;2024-03-29T01:37:03;5.88;;;0.80;;
76202;SDS011;64985;46.364;17.008;2024-03-29T01:40:06;2.75;;;0.73;;
76202;SDS011;64985;46.364;17.008;2024-03-29T01:43:08;3.25;;;0.68;;
76202;SDS011;64985;46.364;17.008;2024-03-29T01:46:09;1.08;;;0.50;;
76202;SDS011;64985;46.364;17.008;2024-03-29T01:49:10;1.13;;;0.60;;
76202;SDS011;64985;46.364;17.008;2024-03-29T01:52:13;1.25;;;0.77;;
76202;SDS011;64985;46.364;17.008;2024-03-29T01:55:16;0.80;;;0.45;;
76202;SDS011;64985;46.364;17.008;2024-03-29T01:58:18;1.75;;;0.70;;
76202;SDS011;64985;46.364;17.008;2024-03-29T02:01:21;3.00;;;0.70;;
76202;SDS011;64985;46.364;17.008;2024-03-29T02:04:22;3.50;;;0.85;;
76202;SDS011;64985;46.364;17.008;2024-03-29T02:07:24;1.98;;;0.82;;
76202;SDS011;64985;46.364;17.008;2024-03-29T02:10:26;2.38;;;0.80;;
76202;SDS011;64985;46.364;17.008;2024-03-29T02:13:27;4.85;;;1.00;;
76202;SDS011;64985;46.364;17.008;2024-03-29T02:16:28;1.27;;;0.80;;
76202;SDS011;64985;46.364;17.008;2024-03-29T02:19:29;1.00;;;0.70;;
76202;SDS011;64985;46.364;17.008;2024-03-29T02:22:30;1.35;;;0.60;;
76202;SDS011;64985;46.364;17.008;2024-03-29T02:25:36;1.20;;;0.88;;
76202;SDS011;64985;46.364;17.008;2024-03-29T02:28:38;2.60;;;0.75;;
76202;SDS011;64985;46.364;17.008;2024-03-29T02:31:39;2.45;;;0.85;;
76202;SDS011;64985;46.364;17.008;2024-03-29T02:34:41;1.73;;;0.70;;
76202;SDS011;64985;46.364;17.008;2024-03-29T02:37:42;1.80;;;0.80;;
76202;SDS011;64985;46.364;17.008;2024-03-29T02:40:43;1.48;;;0.80;;
76202;SDS011;64985;46.364;17.008;2024-03-29T02:43:45;1.33;;;0.90;;
76202;SDS011;64985;46.364;17.008;2024-03-29T02:46:46;3.45;;;1.00;;
76202;SDS011;64985;46.364;17.008;2024-03-29T02:49:48;4.00;;;1.10;;
76202;SDS011;64985;46.364;17.008;2024-03-29T02:52:49;3.17;;;1.08;;
76202;SDS011;64985;46.364;17.008;2024-03-29T02:55:51;4.03;;;1.00;;
76202;SDS011;64985;46.364;17.008;2024-03-29T02:58:52;3.05;;;1.10;;
76202;SDS011;64985;46.364;17.008;2024-03-29T03:01:53;2.75;;;1.15;;
76202;SDS011;64985;46.364;17.008;2024-03-29T03:04:54;1.52;;;1.05;;
76202;SDS011;64985;46.364;17.008;2024-03-29T03:07:55;3.15;;;1.10;;
76202;SDS011;64985;46.364;17.008;2024-03-29T03:11:15;2.10;;;1.27;;
76202;SDS011;64985;46.364;17.008;2024-03-29T03:14:17;2.75;;;1.30;;
76202;SDS011;64985;46.364;17.008;2024-03-29T03:17:18;2.22;;;1.27;;
76202;SDS011;64985;46.364;17.008;2024-03-29T03:20:20;2.42;;;1.48;;
76202;SDS011;64985;46.364;17.008;2024-03-29T03:23:22;2.35;;;1.25;;
76202;SDS011;64985;46.364;17.008;2024-03-29T03:26:23;2.20;;;1.20;;
76202;SDS011;64985;46.364;17.008;2024-03-29T03:29:24;1.95;;;1.20;;
76202;SDS011;64985;46.364;17.008;2024-03-29T03:32:26;1.63;;;1.05;;
76202;SDS011;64985;46.364;17.008;2024-03-29T03:35:27;2.00;;;1.23;;
76202;SDS011;64985;46.364;17.008;2024-03-29T03:38:29;5.18;;;1.00;;
76202;SDS011;64985;46.364;17.008;2024-03-29T03:41:30;1.23;;;0.88;;
76202;SDS011;64985;46.364;17.008;2024-03-29T03:44:31;1.55;;;0.73;;
76202;SDS011;64985;46.364;17.008;2024-03-29T03:47:33;3.05;;;1.00;;
76202;SDS011;64985;46.364;17.008;2024-03-29T03:50:34;3.47;;;1.00;;
76202;SDS011;64985;46.364;17.008;2024-03-29T03:53:36;2.20;;;1.08;;
76202;SDS011;64985;46.364;17.008;2024-03-29T03:56:37;1.42;;;0.90;;
76202;SDS011;64985;46.364;17.008;2024-03-29T03:59:39;3.25;;;1.10;;
76202;SDS011;64985;46.364;17.008;2024-03-29T04:02:40;1.77;;;0.80;;
76202;SDS011;64985;46.364;17.008;2024-03-29T04:05:41;2.28;;;0.90;;
76202;SDS011;64985;46.364;17.008;2024-03-29T04:08:45;1.45;;;0.80;;
76202;SDS011;64985;46.364;17.008;2024-03-29T04:11:47;3.38;;;0.90;;
76202;SDS011;64985;46.364;17.008;2024-03-29T04:14:48;2.53;;;0.90;;
76202;SDS011;64985;46.364;17.008;2024-03-29T04:17:49;2.65;;;1.02;;
76202;SDS011;64985;46.364;17.008;2024-03-29T04:20:55;1.50;;;0.90;;
76202;SDS011;64985;46.364;17.008;2024-03-29T04:23:57;1.42;;;0.77;;
76202;SDS011;64985;46.364;17.008;2024-03-29T04:26:58;2.60;;;0.98;;
76202;SDS011;64985;46.364;17.008;2024-03-29T04:30:00;1.95;;;1.00;;
76202;SDS011;64985;46.364;17.008;2024-03-29T04:33:01;1.48;;;1.00;;
76202;SDS011;64985;46.364;17.008;2024-03-29T04:36:03;1.58;;;0.90;;
76202;SDS011;64985;46.364;17.008;2024-03-29T04:39:04;1.92;;;1.02;;
76202;SDS011;64985;46.364;17.008;2024-03-29T04:42:06;2.00;;;0.93;;
76202;SDS011;64985;46.364;17.008;2024-03-29T04:45:07;2.72;;;1.10;;
76202;SDS011;64985;46.364;17.008;2024-03-29T04:48:09;1.98;;;0.93;;
76202;SDS011;64985;46.364;17.008;2024-03-29T04:51:10;1.67;;;0.80;;
76202;SDS011;64985;46.364;17.008;2024-03-29T04:54:12;2.38;;;0.98;;
76202;SDS011;64985;46.364;17.008;2024-03-29T04:57:13;1.10;;;0.80;;
76202;SDS011;64985;46.364;17.008;2024-03-29T05:00:15;1.85;;;1.00;;
76202;SDS011;64985;46.364;17.008;2024-03-29T05:03:19;1.25;;;0.75;;
76202;SDS011;64985;46.364;17.008;2024-03-29T05:06:21;0.90;;;0.70;;
76202;SDS011;64985;46.364;17.008;2024-03-29T05:09:23;1.23;;;0.80;;
76202;SDS011;64985;46.364;17.008;2024-03-29T05:12:24;0.90;;;0.63;;
76202;SDS011;64985;46.364;17.008;2024-03-29T05:15:26;4.40;;;0.90;;
76202;SDS011;64985;46.364;17.008;2024-03-29T05:18:28;1.38;;;0.70;;
76202;SDS011;64985;46.364;17.008;2024-03-29T05:21:29;1.40;;;0.75;;
76202;SDS011;64985;46.364;17.008;2024-03-29T05:24:30;6.15;;;0.90;;
76202;SDS011;64985;46.364;17.008;2024-03-29T05:27:31;1.15;;;0.90;;
76202;SDS011;64985;46.364;17.008;2024-03-29T05:30:33;2.22;;;1.00;;
76202;SDS011;64985;46.364;17.008;2024-03-29T05:33:36;2.67;;;1.70;;
76202;SDS011;64985;46.364;17.008;2024-03-29T05:36:38;4.05;;;1.90;;
76202;SDS011;64985;46.364;17.008;2024-03-29T05:39:39;4.40;;;2.15;;
76202;SDS011;64985;46.364;17.008;2024-03-29T05:42:40;3.22;;;2.20;;
76202;SDS011;64985;46.364;17.008;2024-03-29T05:45:42;4.32;;;2.60;;
76202;SDS011;64985;46.364;17.008;2024-03-29T05:48:43;6.45;;;2.70;;
76202;SDS011;64985;46.364;17.008;2024-03-29T05:51:44;6.53;;;3.75;;
76202;SDS011;64985;46.364;17.008;2024-03-29T05:54:46;5.78;;;3.67;;
76202;SDS011;64985;46.364;17.008;2024-03-29T05:57:48;4.85;;;3.40;;
76202;SDS011;64985;46.364;17.008;2024-03-29T06:00:49;4.70;;;3.17;;
76202;SDS011;64985;46.364;17.008;2024-03-29T06:03:50;4.90;;;2.60;;
76202;SDS011;64985;46.364;17.008;2024-03-29T06:06:56;3.88;;;2.00;;
76202;SDS011;64985;46.364;17.008;2024-03-29T06:09:59;3.53;;;1.40;;
76202;SDS011;64985;46.364;17.008;2024-03-29T06:13:08;0.98;;;0.70;;
76202;SDS011;64985;46.364;17.008;2024-03-29T06:16:21;1.15;;;0.75;;
76202;SDS011;64985;46.364;17.008;2024-03-29T06:19:57;2.25;;;0.90;;
76202;SDS011;64985;46.364;17.008;2024-03-29T06:23:00;1.00;;;0.63;;
76202;SDS011;64985;46.364;17.008;2024-03-29T06:26:02;1.10;;;0.60;;
76202;SDS011;64985;46.364;17.008;2024-03-29T06:29:04;2.55;;;0.80;;
76202;SDS011;64985;46.364;17.008;2024-03-29T06:32:05;1.08;;;0.70;;
76202;SDS011;64985;46.364;17.008;2024-03-29T06:35:06;1.38;;;0.80;;
76202;SDS011;64985;46.364;17.008;2024-03-29T06:38:08;1.00;;;0.60;;
76202;SDS011;64985;46.364;17.008;2024-03-29T06:41:09;1.48;;;0.60;;
76202;SDS011;64985;46.364;17.008;2024-03-29T06:44:11;1.67;;;0.68;;
76202;SDS011;64985;46.364;17.008;2024-03-29T06:47:12;2.70;;;1.00;;
76202;SDS011;64985;46.364;17.008;2024-03-29T06:50:13;1.13;;;0.70;;
76202;SDS011;64985;46.364;17.008;2024-03-29T06:53:15;1.67;;;0.70;;
76202;SDS011;64985;46.364;17.008;2024-03-29T06:56:16;0.85;;;0.60;;
76202;SDS011;64985;46.364;17.008;2024-03-29T06:59:18;1.95;;;0.68;;
76202;SDS011;64985;46.364;17.008;2024-03-29T07:02:20;2.25;;;0.70;;
76202;SDS011;64985;46.364;17.008;2024-03-29T07:05:21;3.85;;;1.00;;
76202;SDS011;64985;46.364;17.008;2024-03-29T07:08:23;0.90;;;0.60;;
76202;SDS011;64985;46.364;17.008;2024-03-29T07:11:24;1.45;;;0.80;;
76202;SDS011;64985;46.364;17.008;2024-03-29T07:14:26;1.60;;;0.80;;
76202;SDS011;64985;46.364;17.008;2024-03-29T07:17:28;2.88;;;0.80;;
76202;SDS011;64985;46.364;17.008;2024-03-29T07:20:30;2.40;;;0.90;;
76202;SDS011;64985;46.364;17.008;2024-03-29T07:23:31;2.30;;;0.70;;
76202;SDS011;64985;46.364;17.008;2024-03-29T07:26:32;1.95;;;0.88;;
76202;SDS011;64985;46.364;17.008;2024-03-29T07:29:34;1.60;;;0.80;;
76202;SDS011;64985;46.364;17.008;2024-03-29T07:32:35;5.68;;;0.88;;
76202;SDS011;64985;46.364;17.008;2024-03-29T07:35:36;6.47;;;0.82;;
76202;SDS011;64985;46.364;17.008;2024-03-29T07:38:42;1.30;;;0.80;;
76202;SDS011;64985;46.364;17.008;2024-03-29T07:41:45;3.42;;;0.90;;
76202;SDS011;64985;46.364;17.008;2024-03-29T07:44:46;2.03;;;0.80;;
76202;SDS011;64985;46.364;17.008;2024-03-29T07:47:48;1.50;;;0.70;;
76202;SDS011;64985;46.364;17.008;2024-03-29T07:50:53;1.30;;;0.65;;
76202;SDS011;64985;46.364;17.008;2024-03-29T07:53:54;1.17;;;0.70;;
76202;SDS011;64985;46.364;17.008;2024-03-29T07:56:55;2.65;;;0.80;;
76202;SDS011;64985;46.364;17.008;2024-03-29T07:59:57;1.65;;;0.60;;
76202;SDS011;64985;46.364;17.008;2024-03-29T08:03:01;2.33;;;0.70;;
76202;SDS011;64985;46.364;17.008;2024-03-29T08:06:02;2.78;;;0.73;;
76202;SDS011;64985;46.364;17.008;2024-03-29T08:09:07;3.03;;;1.20;;
76202;SDS011;64985;46.364;17.008;2024-03-29T08:12:10;3.55;;;0.85;;
76202;SDS011;64985;46.364;17.008;2024-03-29T08:15:11;3.65;;;0.80;;
76202;SDS011;64985;46.364;17.008;2024-03-29T08:18:12;1.85;;;0.80;;
76202;SDS011;64985;46.364;17.008;2024-03-29T08:21:14;3.40;;;0.75;;
76202;SDS011;64985;46.364;17.008;2024-03-29T08:24:15;1.85;;;0.80;;
76202;SDS011;64985;46.364;17.008;2024-03-29T08:27:16;2.08;;;0.77;;
76202;SDS011;64985;46.364;17.008;2024-03-29T08:30:18;3.78;;;0.70;;
76202;SDS011;64985;46.364;17.008;2024-03-29T08:33:19;4.35;;;0.80;;
76202;SDS011;64985;46.364;17.008;2024-03-29T08:36:21;4.38;;;1.13;;
76202;SDS011;64985;46.364;17.008;2024-03-29T08:39:23;2.25;;;0.90;;
76202;SDS011;64985;46.364;17.008;2024-03-29T08:42:24;2.72;;;0.90;;
76202;SDS011;64985;46.364;17.008;2024-03-29T08:45:25;5.03;;;1.33;;
76202;SDS011;64985;46.364;17.008;2024-03-29T08:48:26;6.65;;;1.10;;
76202;SDS011;64985;46.364;17.008;2024-03-29T08:51:28;4.72;;;1.27;;
76202;SDS011;64985;46.364;17.008;2024-03-29T08:54:30;3.75;;;1.15;;
76202;SDS011;64985;46.364;17.008;2024-03-29T08:57:32;3.50;;;1.00;;
76202;SDS011;64985;46.364;17.008;2024-03-29T09:00:33;2.63;;;0.95;;
76202;SDS011;64985;46.364;17.008;2024-03-29T09:03:35;3.13;;;1.00;;
76202;SDS011;64985;46.364;17.008;2024-03-29T09:06:37;3.83;;;1.52;;
76202;SDS011;64985;46.364;17.008;2024-03-29T09:09:38;3.85;;;1.25;;
76202;SDS011;64985;46.364;17.008;2024-03-29T09:12:42;4.55;;;1.40;;
76202;SDS011;64985;46.364;17.008;2024-03-29T09:15:43;8.95;;;1.60;;
76202;SDS011;64985;46.364;17.008;2024-03-29T09:18:46;9.27;;;1.30;;
76202;SDS011;64985;46.364;17.008;2024-03-29T09:21:47;6.57;;;1.80;;
76202;SDS011;64985;46.364;17.008;2024-03-29T09:24:48;6.63;;;1.60;;
76202;SDS011;64985;46.364;17.008;2024-03-29T09:27:49;6.97;;;1.80;;
76202;SDS011;64985;46.364;17.008;2024-03-29T09:30:56;10.50;;;1.80;;
76202;SDS011;64985;46.364;17.008;2024-03-29T09:33:59;9.47;;;1.80;;
76202;SDS011;64985;46.364;17.008;2024-03-29T09:37:00;8.82;;;2.25;;
76202;SDS011;64985;46.364;17.008;2024-03-29T09:40:03;8.57;;;2.40;;
76202;SDS011;64985;46.364;17.008;2024-03-29T09:43:05;11.35;;;2.80;;
76202;SDS011;64985;46.364;17.008;2024-03-29T09:46:10;10.30;;;2.25;;
76202;SDS011;64985;46.364;17.008;2024-03-29T09:49:11;9.60;;;1.80;;
76202;SDS011;64985;46.364;17.008;2024-03-29T09:52:13;8.65;;;1.67;;
76202;SDS011;64985;46.364;17.008;2024-03-29T09:55:15;9.70;;;1.80;;
76202;SDS011;64985;46.364;17.008;2024-03-29T09:58:20;7.72;;;1.65;;
76202;SDS011;64985;46.364;17.008;2024-03-29T10:01:21;11.25;;;1.88;;
76202;SDS011;64985;46.364;17.008;2024-03-29T10:04:23;8.23;;;1.60;;
76202;SDS011;64985;46.364;17.008;2024-03-29T10:07:25;8.63;;;1.88;;
76202;SDS011;64985;46.364;17.008;2024-03-29T10:10:26;5.32;;;1.38;;
76202;SDS011;64985;46.364;17.008;2024-03-29T10:13:28;9.32;;;1.80;;
76202;SDS011;64985;46.364;17.008;2024-03-29T10:16:30;10.90;;;1.70;;
76202;SDS011;64985;46.364;17.008;2024-03-29T10:19:31;8.15;;;1.80;;
76202;SDS011;64985;46.364;17.008;2024-03-29T10:22:40;8.77;;;1.02;;
76202;SDS011;64985;46.364;17.008;2024-03-29T10:25:44;8.80;;;1.30;;
76202;SDS011;64985;46.364;17.008;2024-03-29T10:28:47;7.13;;;1.40;;
76202;SDS011;64985;46.364;17.008;2024-03-29T10:31:49;10.68;;;1.52;;
76202;SDS011;64985;46.364;17.008;2024-03-29T10:34:52;6.47;;;1.42;;
76202;SDS011;64985;46.364;17.008;2024-03-29T10:37:53;9.10;;;1.50;;
76202;SDS011;64985;46.364;17.008;2024-03-29T10:40:55;10.40;;;1.77;;
76202;SDS011;64985;46.364;17.008;2024-03-29T10:43:56;7.93;;;1.70;;
76202;SDS011;64985;46.364;17.008;2024-03-29T10:46:59;9.20;;;1.90;;
76202;SDS011;64985;46.364;17.008;2024-03-29T10:50:02;6.82;;;1.63;;
76202;SDS011;64985;46.364;17.008;2024-03-29T10:53:06;8.15;;;1.42;;
76202;SDS011;64985;46.364;17.008;2024-03-29T10:56:07;6.25;;;1.33;;
76202;SDS011;64985;46.364;17.008;2024-03-29T10:59:21;8.02;;;1.27;;
76202;SDS011;64985;46.364;17.008;2024-03-29T11:02:42;9.13;;;1.73;;
76202;SDS011;64985;46.364;17.008;2024-03-29T11:06:04;7.43;;;1.67;;
76202;SDS011;64985;46.364;17.008;2024-03-29T11:09:07;8.85;;;1.70;;
76202;SDS011;64985;46.364;17.008;2024-03-29T11:12:14;11.15;;;1.50;;
76202;SDS011;64985;46.364;17.008;2024-03-29T11:15:17;11.90;;;1.75;;
76202;SDS011;64985;46.364;17.008;2024-03-29T11:18:27;8.90;;;1.25;;
76202;SDS011;64985;46.364;17.008;2024-03-29T11:21:30;6.93;;;1.38;;
76202;SDS011;64985;46.364;17.008;2024-03-29T11:24:32;6.05;;;1.25;;
76202;SDS011;64985;46.364;17.008;2024-03-29T11:27:35;7.95;;;1.52;;
76202;SDS011;64985;46.364;17.008;2024-03-29T11:30:42;8.50;;;1.60;;
76202;SDS011;64985;46.364;17.008;2024-03-29T11:33:48;8.68;;;1.60;;
76202;SDS011;64985;46.364;17.008;2024-03-29T11:36:50;6.80;;;1.63;;
76202;SDS011;64985;46.364;17.008;2024-03-29T11:39:51;7.90;;;1.70;;
76202;SDS011;64985;46.364;17.008;2024-03-29T11:42:55;9.38;;;1.73;;
76202;SDS011;64985;46.364;17.008;2024-03-29T11:45:57;6.10;;;1.58;;
76202;SDS011;64985;46.364;17.008;2024-03-29T11:49:04;8.48;;;1.63;;
76202;SDS011;64985;46.364;17.008;2024-03-29T11:52:05;7.40;;;1.55;;
76202;SDS011;64985;46.364;17.008;2024-03-29T11:55:07;7.95;;;1.90;;
76202;SDS011;64985;46.364;17.008;2024-03-29T11:58:08;4.57;;;1.48;;
76202;SDS011;64985;46.364;17.008;2024-03-29T12:01:09;9.75;;;1.58;;
76202;SDS011;64985;46.364;17.008;2024-03-29T12:04:18;6.00;;;1.60;;
76202;SDS011;64985;46.364;17.008;2024-03-29T12:07:23;9.60;;;1.38;;
76202;SDS011;64985;46.364;17.008;2024-03-29T12:10:28;11.77;;;1.42;;
76202;SDS011;64985;46.364;17.008;2024-03-29T12:13:30;6.95;;;1.50;;
76202;SDS011;64985;46.364;17.008;2024-03-29T12:16:41;4.80;;;1.27;;
76202;SDS011;64985;46.364;17.008;2024-03-29T12:19:46;6.70;;;1.40;;
76202;SDS011;64985;46.364;17.008;2024-03-29T12:22:49;7.55;;;1.30;;
76202;SDS011;64985;46.364;17.008;2024-03-29T12:25:57;8.88;;;1.65;;
76202;SDS011;64985;46.364;17.008;2024-03-29T12:28:58;5.90;;;1.27;;
76202;SDS011;64985;46.364;17.008;2024-03-29T12:32:01;8.57;;;1.60;;
76202;SDS011;64985;46.364;17.008;2024-03-29T12:35:09;7.20;;;1.63;;
76202;SDS011;64985;46.364;17.008;2024-03-29T12:38:12;5.97;;;1.30;;
76202;SDS011;64985;46.364;17.008;2024-03-29T12:41:15;9.18;;;1.60;;
76202;SDS011;64985;46.364;17.008;2024-03-29T12:44:16;8.15;;;1.33;;
76202;SDS011;64985;46.364;17.008;2024-03-29T12:47:17;13.70;;;1.88;;
76202;SDS011;64985;46.364;17.008;2024-03-29T12:50:19;6.45;;;1.38;;
76202;SDS011;64985;46.364;17.008;2024-03-29T12:53:28;7.55;;;1.50;;
76202;SDS011;64985;46.364;17.008;2024-03-29T12:56:30;5.68;;;1.42;;
76202;SDS011;64985;46.364;17.008;2024-03-29T12:59:36;4.95;;;1.05;;
76202;SDS011;64985;46.364;17.008;2024-03-29T13:02:37;5.53;;;1.30;;
76202;SDS011;64985;46.364;17.008;2024-03-29T13:05:39;6.93;;;1.20;;
76202;SDS011;64985;46.364;17.008;2024-03-29T13:08:41;5.90;;;1.20;;
76202;SDS011;64985;46.364;17.008;2024-03-29T13:11:43;8.90;;;1.30;;
76202;SDS011;64985;46.364;17.008;2024-03-29T13:14:44;9.10;;;1.30;;
76202;SDS011;64985;46.364;17.008;2024-03-29T13:17:46;7.72;;;1.25;;
76202;SDS011;64985;46.364;17.008;2024-03-29T13:20:49;9.65;;;1.60;;
76202;SDS011;64985;46.364;17.008;2024-03-29T13:23:50;8.75;;;1.48;;
76202;SDS011;64985;46.364;17.008;2024-03-29T13:26:51;7.47;;;1.52;;
76202;SDS011;64985;46.364;17.008;2024-03-29T13:29:53;6.35;;;1.55;;
76202;SDS011;64985;46.364;17.008;2024-03-29T13:32:54;9.10;;;1.70;;
76202;SDS011;64985;46.364;17.008;2024-03-29T13:35:57;8.25;;;1.73;;
76202;SDS011;64985;46.364;17.008;2024-03-29T13:38:59;6.63;;;1.33;;
76202;SDS011;64985;46.364;17.008;2024-03-29T13:42:00;8.70;;;1.73;;
76202;SDS011;64985;46.364;17.008;2024-03-29T13:45:01;7.82;;;1.30;;
76202;SDS011;64985;46.364;17.008;2024-03-29T13:48:02;9.85;;;1.40;;
76202;SDS011;64985;46.364;17.008;2024-03-29T13:51:04;6.57;;;1.25;;
76202;SDS011;64985;46.364;17.008;2024-03-29T13:54:07;8.68;;;1.58;;
76202;SDS011;64985;46.364;17.008;2024-03-29T13:57:08;9.43;;;1.73;;
76202;SDS011;64985;46.364;17.008;2024-03-29T14:00:10;11.65;;;1.95;;
76202;SDS011;64985;46.364;17.008;2024-03-29T14:03:15;12.70;;;1.52;;
76202;SDS011;64985;46.364;17.008;2024-03-29T14:06:16;10.90;;;1.65;;
76202;SDS011;64985;46.364;17.008;2024-03-29T14:09:17;9.70;;;1.77;;
76202;SDS011;64985;46.364;17.008;2024-03-29T14:12:19;8.05;;;1.40;;
76202;SDS011;64985;46.364;17.008;2024-03-29T14:15:22;8.82;;;1.52;;
76202;SDS011;64985;46.364;17.008;2024-03-29T14:18:23;7.55;;;1.67;;
76202;SDS011;64985;46.364;17.008;2024-03-29T14:21:24;11.45;;;1.55;;
76202;SDS011;64985;46.364;17.008;2024-03-29T14:24:26;5.82;;;1.52;;
76202;SDS011;64985;46.364;17.008;2024-03-29T14:27:28;7.00;;;1.50;;
76202;SDS011;64985;46.364;17.008;2024-03-29T14:30:31;9.85;;;1.85;;
76202;SDS011;64985;46.364;17.008;2024-03-29T14:33:32;10.68;;;1.63;;
76202;SDS011;64985;46.364;17.008;2024-03-29T14:36:34;6.55;;;1.52;;
76202;SDS011;64985;46.364;17.008;2024-03-29T14:39:35;11.40;;;1.52;;
76202;SDS011;64985;46.364;17.008;2024-03-29T14:42:36;5.50;;;1.33;;
76202;SDS011;64985;46.364;17.008;2024-03-29T14:45:37;9.90;;;1.45;;
76202;SDS011;64985;46.364;17.008;2024-03-29T14:48:39;8.60;;;1.55;;
76202;SDS011;64985;46.364;17.008;2024-03-29T14:51:40;8.50;;;1.58;;
76202;SDS011;64985;46.364;17.008;2024-03-29T14:54:42;9.80;;;1.83;;
76202;SDS011;64985;46.364;17.008;2024-03-29T14:57:43;6.93;;;1.20;;
76202;SDS011;64985;46.364;17.008;2024-03-29T15:00:45;8.98;;;1.40;;
76202;SDS011;64985;46.364;17.008;2024-03-29T15:03:47;7.20;;;1.58;;
76202;SDS011;64985;46.364;17.008;2024-03-29T15:06:49;7.32;;;1.55;;
76202;SDS011;64985;46.364;17.008;2024-03-29T15:09:50;7.45;;;1.50;;
76202;SDS011;64985;46.364;17.008;2024-03-29T15:12:52;12.68;;;1.65;;
76202;SDS011;64985;46.364;17.008;2024-03-29T15:15:55;7.20;;;1.50;;
76202;SDS011;64985;46.364;17.008;2024-03-29T15:18:59;8.00;;;1.40;;
76202;SDS011;64985;46.364;17.008;2024-03-29T15:22:01;6.25;;;1.50;;
76202;SDS011;64985;46.364;17.008;2024-03-29T15:25:03;6.93;;;1.42;;
76202;SDS011;64985;46.364;17.008;2024-03-29T15:28:05;11.18;;;1.80;;
76202;SDS011;64985;46.364;17.008;2024-03-29T15:31:13;11.13;;;1.77;;
76202;SDS011;64985;46.364;17.008;2024-03-29T15:34:20;11.15;;;1.90;;
76202;SDS011;64985;46.364;17.008;2024-03-29T15:37:21;13.55;;;1.60;;
76202;SDS011;64985;46.364;17.008;2024-03-29T15:40:25;8.95;;;1.75;;
76202;SDS011;64985;46.364;17.008;2024-03-29T15:43:27;6.47;;;1.60;;
76202;SDS011;64985;46.364;17.008;2024-03-29T15:46:28;11.02;;;1.65;;
76202;SDS011;64985;46.364;17.008;2024-03-29T15:49:30;7.55;;;1.60;;
76202;SDS011;64985;46.364;17.008;2024-03-29T15:52:31;6.60;;;1.60;;
76202;SDS011;64985;46.364;17.008;2024-03-29T15:55:33;10.70;;;1.70;;
76202;SDS011;64985;46.364;17.008;2024-03-29T15:58:34;10.82;;;1.88;;
76202;SDS011;64985;46.364;17.008;2024-03-29T16:01:36;7.50;;;1.52;;
76202;SDS011;64985;46.364;17.008;2024-03-29T16:04:38;8.40;;;1.58;;
76202;SDS011;64985;46.364;17.008;2024-03-29T16:07:39;7.22;;;1.70;;
76202;SDS011;64985;46.364;17.008;2024-03-29T16:13:53;4.82;;;1.35;;
76202;SDS011;64985;46.364;17.008;2024-03-29T16:16:55;10.77;;;1.70;;
76202;SDS011;64985;46.364;17.008;2024-03-29T16:19:56;8.05;;;1.77;;
76202;SDS011;64985;46.364;17.008;2024-03-29T16:22:57;10.55;;;1.80;;
76202;SDS011;64985;46.364;17.008;2024-03-29T16:25:59;13.75;;;1.95;;
76202;SDS011;64985;46.364;17.008;2024-03-29T16:29:00;7.13;;;1.52;;
76202;SDS011;64985;46.364;17.008;2024-03-29T16:32:07;7.35;;;1.60;;
76202;SDS011;64985;46.364;17.008;2024-03-29T16:35:09;9.50;;;1.83;;
76202;SDS011;64985;46.364;17.008;2024-03-29T16:38:11;9.32;;;1.83;;
76202;SDS011;64985;46.364;17.008;2024-03-29T16:41:12;10.02;;;1.98;;
76202;SDS011;64985;46.364;17.008;2024-03-29T16:44:14;9.63;;;1.80;;
76202;SDS011;64985;46.364;17.008;2024-03-29T16:47:15;8.85;;;1.60;;
76202;SDS011;64985;46.364;17.008;2024-03-29T16:50:17;10.68;;;2.20;;
76202;SDS011;64985;46.364;17.008;2024-03-29T16:53:18;8.95;;;2.20;;
76202;SDS011;64985;46.364;17.008;2024-03-29T16:56:19;6.75;;;1.80;;
76202;SDS011;64985;46.364;17.008;2024-03-29T16:59:20;10.20;;;2.25;;
76202;SDS011;64985;46.364;17.008;2024-03-29T17:02:21;8.15;;;2.00;;
76202;SDS011;64985;46.364;17.008;2024-03-29T17:05:23;9.00;;;2.13;;
76202;SDS011;64985;46.364;17.008;2024-03-29T17:08:24;10.23;;;2.58;;
76202;SDS011;64985;46.364;17.008;2024-03-29T17:11:26;13.10;;;2.55;;
76202;SDS011;64985;46.364;17.008;2024-03-29T17:14:27;16.58;;;2.30;;
76202;SDS011;64985;46.364;17.008;2024-03-29T17:17:30;12.52;;;2.15;;
76202;SDS011;64985;46.364;17.008;2024-03-29T17:20:31;8.65;;;1.92;;
76202;SDS011;64985;46.364;17.008;2024-03-29T17:23:32;6.88;;;1.80;;
76202;SDS011;64985;46.364;17.008;2024-03-29T17:26:34;11.48;;;1.60;;
76202;SDS011;64985;46.364;17.008;2024-03-29T17:29:35;11.10;;;1.90;;
76202;SDS011;64985;46.364;17.008;2024-03-29T17:32:36;10.55;;;2.00;;
76202;SDS011;64985;46.364;17.008;2024-03-29T17:35:38;8.02;;;1.73;;
76202;SDS011;64985;46.364;17.008;2024-03-29T17:38:39;7.65;;;1.90;;
76202;SDS011;64985;46.364;17.008;2024-03-29T17:41:40;11.18;;;2.28;;
76202;SDS011;64985;46.364;17.008;2024-03-29T17:44:42;9.98;;;2.30;;
76202;SDS011;64985;46.364;17.008;2024-03-29T17:47:44;13.50;;;2.00;;
76202;SDS011;64985;46.364;17.008;2024-03-29T17:50:45;8.70;;;1.73;;
76202;SDS011;64985;46.364;17.008;2024-03-29T17:53:46;18.33;;;2.00;;
76202;SDS011;64985;46.364;17.008;2024-03-29T17:56:47;12.50;;;2.00;;
76202;SDS011;64985;46.364;17.008;2024-03-29T17:59:48;8.07;;;2.20;;
76202;SDS011;64985;46.364;17.008;2024-03-29T18:02:50;12.35;;;2.50;;